Flight Track Log - Related Links

Times and Time Zones

All times are in EDT time to prevent confusion due to time zone crossing. See the N53PB flight status page for this flight to view local times or setup timezone preferences in your user account.

Time Position Orientation Groundspeed Altitude Reporting Facility
EDT Latitude Longitude Course Direction KTS MPH feet Rate Location/Type
Thu 09:51:14 PM 42.2675 -85.3219 261° West 108 124 2,700  Level Chicago Center
Thu 09:52:16 PM 42.2514 -85.3550 237° Southwest 114 131 3,200 488 Climbing Chicago Center
Thu 09:53:17 PM 42.2347 -85.3906 238° Southwest 112 129 3,700 537 Climbing Chicago Center
Thu 09:54:19 PM 42.2133 -85.4339 236° Southwest 115 132 4,300 435 Climbing Chicago Center
Thu 09:55:00 PM 42.2715 -85.5401 261° West  Level Estimated
Thu 09:55:21 PM 42.1961 -85.4728 239° Southwest 118 136 4,600  Level Chicago Center
Thu 09:56:00 PM 42.2655 -85.5884 261° West  Level Estimated
Thu 09:56:23 PM 42.1747 -85.5175 237° Southwest 134 154 4,500  Level Chicago Center
Thu 09:57:24 PM 42.1511 -85.5622 235° Southwest 143 165 4,500 57 Level Chicago Center
Thu 09:59:00 PM 42.1114 -85.6192 227° Southwest  Level FlightAware Approximate
Thu 10:06:00 PM 41.9386 -85.8715 234° Southwest  Level FlightAware Approximate
Thu 10:07:00 PM 41.9175 -85.9111 234° Southwest  Level FlightAware Approximate
Thu 10:08:00 PM 41.8964 -85.9507 234° Southwest  Level FlightAware Approximate
Thu 10:09:00 PM 41.8753 -85.9902 234° Southwest  Level FlightAware Approximate
Thu 10:10:00 PM 41.8541 -86.0298 234° Southwest  Level FlightAware Approximate
Thu 10:11:00 PM 41.8330 -86.0693 234° Southwest  Level FlightAware Approximate
Thu 10:12:00 PM 41.8119 -86.1087 234° Southwest  Level FlightAware Approximate
Thu 10:13:00 PM 41.7907 -86.1482 234° Southwest  Level FlightAware Approximate
Thu 10:14:00 PM 41.7695 -86.1876 234° Southwest  Level FlightAware Approximate
Thu 10:15:00 PM 41.7483 -86.2270 234° Southwest  Level FlightAware Approximate
Thu 10:16:00 PM 41.7271 -86.2664 234° Southwest  Level FlightAware Approximate
Thu 10:17:00 PM 41.7059 -86.3057 234° Southwest  Level FlightAware Approximate
Thu 10:18:00 PM 41.7040 -86.3513 279° West  Level FlightAware Approximate
Thu 10:19:00 PM 41.7096 -86.3992 279° West  Level FlightAware Approximate
Thu 10:20:00 PM 41.7152 -86.4472 279° West  Level FlightAware Approximate
Thu 10:21:00 PM 41.7207 -86.4952 279° West  Level FlightAware Approximate
Thu 10:22:00 PM 41.7262 -86.5432 279° West  Level FlightAware Approximate
Thu 10:23:00 PM 41.7318 -86.5911 279° West  Level FlightAware Approximate
Thu 10:24:00 PM 41.7372 -86.6392 279° West  Level FlightAware Approximate
Thu 10:25:00 PM 41.7427 -86.6871 279° West  Level FlightAware Approximate
Thu 10:26:00 PM 41.7481 -86.7352 279° West  Level FlightAware Approximate
Thu 10:27:00 PM 41.7536 -86.7832 279° West  Level FlightAware Approximate
Thu 10:28:00 PM 41.7590 -86.8312 279° West  Level FlightAware Approximate
Thu 10:29:00 PM 41.7644 -86.8792 279° West  Level FlightAware Approximate
Thu 10:30:00 PM 41.7697 -86.9273 279° West  Level FlightAware Approximate
Thu 10:31:00 PM 41.7751 -86.9753 278° West  Level FlightAware Approximate
Thu 10:31:34 PM 41.7833 -87.1500 277° West 132 152 6,500  Level Chicago TRACON
Thu 10:32:00 PM 41.7804 -87.0234 278° West  Level FlightAware Approximate
Thu 10:32:35 PM 41.7500 -87.2000 228° Southwest 151 174 6,000  Level Chicago TRACON
Thu 10:33:00 PM 41.7854 -87.0715 277° West  Level FlightAware Approximate
Thu 10:33:29 PM 41.7333 -87.2333 236° Southwest 154 177 5,600  Level Chicago TRACON
Thu 10:34:00 PM 41.7899 -87.1198 277° West  Level FlightAware Approximate
Thu 10:34:35 PM 41.7167 -87.2833 246° West 152 175 5,000  Level Chicago TRACON
Thu 10:35:00 PM 41.7945 -87.1680 277° West  Level FlightAware Approximate
Thu 10:35:29 PM 41.7000 -87.3333 246° West 154 177 4,500  Level Chicago TRACON
Thu 10:36:00 PM 41.7990 -87.2162 277° West  Level FlightAware Approximate
Thu 10:36:29 PM 41.6667 -87.3833 228° Southwest 152 175 3,800  Level Chicago TRACON
Thu 10:37:29 PM 41.6500 -87.4333 246° West 149 171 3,400 -200 Descending Chicago TRACON
Thu 10:38:29 PM 41.6333 -87.4833 246° West 138 159 3,400  Level Chicago TRACON
Thu 10:39:29 PM 41.6167 -87.5333 246° West 144 166 3,400 53 Level Chicago TRACON
Thu 10:40:23 PM 41.6000 -87.5667 236° Southwest 139 160 3,500 -158 Climbing Chicago TRACON
Thu 10:41:23 PM 41.6000 -87.6167 270° West 150 173 3,100 -250 Descending Chicago TRACON
Thu 10:42:23 PM 41.5833 -87.6833 252° West 153 176 3,000 -50 Descending Chicago TRACON
Thu 10:43:24 PM 41.5833 -87.7333 270° West 140 161 3,000  Level Chicago TRACON
Thu 10:44:30 PM 41.5833 -87.7833 270° West 135 155 3,000  Level Chicago TRACON
Thu 10:45:30 PM 41.5833 -87.8333 270° West 128 147 3,000  Level Chicago TRACON
Thu 10:46:30 PM 41.6000 -87.8667 304° West 124 143 3,000  Level Chicago TRACON
Thu 10:47:42 PM 41.6167 -87.9167 294° West 122 140 3,000  Level Chicago TRACON
Thu 10:48:36 PM 41.6333 -87.9500 304° West 120 138 3,000 -53 Level Chicago TRACON
Thu 10:49:36 PM 41.6500 -87.9833 304° West 117 135 2,900 -238 Descending Chicago TRACON
Thu 10:50:42 PM 41.6833 -88.0333 312° West 128 147 2,500 -190 Descending Chicago TRACON
Thu 10:51:42 PM 41.7000 -88.0667 304° West 125 144 2,500  Level Chicago TRACON
Thu 10:52:36 PM 41.7167 -88.0833 323° Northwest 124 143 2,500  Level Chicago TRACON
Thu 10:53:36 PM 41.7500 -88.1167 323° Northwest 120 138 2,500  Level Chicago TRACON
Thu 10:54:43 PM 41.7833 -88.1500 323° Northwest 121 139 2,500  Level Chicago TRACON
Thu 10:55:43 PM 41.8000 -88.1833 304° West 122 140 2,500  Level Chicago TRACON
Thu 10:56:43 PM 41.8167 -88.2167 304° West 122 140 2,500 -211 Level Chicago TRACON
Thu 10:57:37 PM 41.8500 -88.2500 323° Northwest 118 136 2,100 -579 Descending Chicago TRACON
Thu 10:58:37 PM 41.8667 -88.2667 323° Northwest 88 101 1,400 -632 Descending Chicago TRACON
Thu 10:59:31 PM 41.8833 -88.2500 37° Northeast 81 93 900 33 Descending Chicago TRACON
Thu 11:01:37 PM 41.9333 -88.2333 14° North 93 107 1,500 286 Climbing Chicago TRACON
Thu 11:03:00 PM 41.9071 -88.2480 203° Southwest  Level Estimated
Thu 11:10:00 PM 41.9071 -88.2480 37° Northeast  Level Estimated
Thu 11:11:00 PM 41.9071 -88.2480 37° Northeast  Level Estimated
Thu 11:12:00 PM 41.9071 -88.2480 37° Northeast  Level Estimated
Thu 11:13:00 PM 41.9071 -88.2480 37° Northeast  Level Estimated
Thu 11:14:00 PM 41.9071 -88.2480 37° Northeast  Level Estimated
Thu 11:15:00 PM 41.9071 -88.2480 37° Northeast  Level Estimated

Login

Don't have an account? Register now (free) for customized features, flight alerts, and more!